Saint Charles, Louisiana
Current Conditions -  °F | °C
As of 5:55 AM on Friday 24 Oct 2014 (Local Time) from KHUM Reporting Station
Clear Clear  
Wind Chill: 53°   Ceiling: Unl
Heat Index: 53°   Visibility: 7mi
Dew Point: 51°   Wind: 0mph
Humidity: 95%   Direction: NA
Pressure: 30.09"   Gusts: NA
Location:  29.7195°N, 90.5441°W
Report Text: KHUM 241055Z AUTO 00000KT 7SM CLR 11/11 A3009 RMK AO2 T01140106
Loading
Personal Weather Stations






























Interactive Weather Map
Tropical Storm Tracking
New forecast layout! Learn more

10-Day Weather Forecast

Advertisements
Track Severe Weather on mobile